TimeMST,TemperatureF,Dew PointF,Humidity,Sea Level PressureIn,VisibilityMPH,Wind Direction,Wind SpeedMPH,Gust SpeedMPH,PrecipitationIn,Events,Conditions,WindDirDegrees,DateUTC
12:48 AM,28.9,26.1,89,30.07,-9999.0,Calm,Calm,-,N/A,,Unknown,0,2012-11-19 07:48:00
1:48 AM,26.1,23.0,88,30.08,-9999.0,WNW,3.5,-,N/A,,Unknown,300,2012-11-19 08:48:00
2:48 AM,26.1,24.1,92,30.09,-9999.0,Calm,Calm,-,N/A,,Unknown,0,2012-11-19 09:48:00
3:48 AM,27.0,23.0,85,30.08,-9999.0,Calm,Calm,-,N/A,,Unknown,0,2012-11-19 10:48:00
4:48 AM,24.1,21.0,88,30.08,-9999.0,Calm,Calm,-,N/A,,Unknown,0,2012-11-19 11:48:00
5:48 AM,24.1,21.0,88,30.09,-9999.0,Calm,Calm,-,N/A,,Unknown,0,2012-11-19 12:48:00
6:48 AM,26.1,21.9,84,30.09,-9999.0,East,5.8,-,N/A,,Unknown,80,2012-11-19 13:48:00
7:48 AM,25.0,21.9,88,30.09,-9999.0,Calm,Calm,-,N/A,,Unknown,0,2012-11-19 14:48:00
8:48 AM,33.1,28.9,85,30.08,-9999.0,East,4.6,-,N/A,,Unknown,80,2012-11-19 15:48:00
9:48 AM,45.0,30.0,56,30.06,-9999.0,Calm,Calm,-,N/A,,Unknown,0,2012-11-19 16:48:00
10:48 AM,48.9,28.9,46,30.05,-9999.0,South,16.1,24.2,N/A,,Unknown,190,2012-11-19 17:48:00
11:48 AM,53.1,30.0,41,30.01,-9999.0,SSW,18.4,25.3,N/A,,Unknown,200,2012-11-19 18:48:00
12:48 PM,52.0,30.0,43,29.99,-9999.0,South,13.8,21.9,N/A,,Unknown,190,2012-11-19 19:48:00
1:48 PM,54.0,30.0,40,29.98,-9999.0,SSW,17.3,23.0,N/A,,Unknown,200,2012-11-19 20:48:00
2:48 PM,54.0,30.9,41,29.98,-9999.0,South,15.0,-,N/A,,Unknown,190,2012-11-19 21:48:00
3:48 PM,52.0,32.0,47,29.97,-9999.0,SSW,12.7,-,N/A,,Unknown,200,2012-11-19 22:48:00
4:48 PM,46.0,32.0,58,29.99,-9999.0,South,9.2,-,N/A,,Unknown,180,2012-11-19 23:48:00
5:48 PM,44.1,30.9,60,29.99,-9999.0,South,5.8,-,N/A,,Unknown,190,2012-11-20 00:48:00
6:48 PM,41.0,30.9,67,29.99,-9999.0,East,3.5,-,N/A,,Unknown,90,2012-11-20 01:48:00
7:48 PM,44.1,30.9,60,29.97,-9999.0,Calm,Calm,-,N/A,,Unknown,0,2012-11-20 02:48:00
8:48 PM,46.9,30.9,54,29.94,-9999.0,SSW,13.8,-,N/A,,Unknown,210,2012-11-20 03:48:00
9:48 PM,46.0,30.9,56,29.90,-9999.0,South,13.8,-,N/A,,Unknown,190,2012-11-20 04:48:00
10:48 PM,46.0,30.9,56,29.88,-9999.0,SSW,12.7,-,N/A,,Unknown,200,2012-11-20 05:48:00
11:48 PM,45.0,30.9,58,29.88,-9999.0,SSW,12.7,-,N/A,,Unknown,210,2012-11-20 06:48:00